createdAt,value
2023-09-22T00:09:46.828Z,6.93
2023-09-22T00:19:53.925Z,8.20
2023-09-22T00:30:02.887Z,5.15
2023-09-22T00:40:14.504Z,6.22
2023-09-22T00:50:23.532Z,5.03
2023-09-22T01:00:31.025Z,4.47
2023-09-22T01:10:44.710Z,5.63
2023-09-22T01:20:51.798Z,4.85
2023-09-22T01:31:01.060Z,4.20
2023-09-22T01:41:09.067Z,5.00
2023-09-22T01:51:19.466Z,5.15
2023-09-22T02:01:27.039Z,4.30
2023-09-22T02:11:35.647Z,6.00
2023-09-22T02:21:42.875Z,6.30
2023-09-22T02:31:51.632Z,7.68
2023-09-22T02:41:59.040Z,7.07
2023-09-22T02:52:09.697Z,5.65
2023-09-22T03:02:20.413Z,5.28
2023-09-22T03:12:31.046Z,4.32
2023-09-22T03:22:38.873Z,7.22
2023-09-22T03:32:47.535Z,8.77
2023-09-22T03:42:56.041Z,7.97
2023-09-22T03:53:05.158Z,6.57
2023-09-22T04:03:12.219Z,9.13
2023-09-22T04:13:20.934Z,12.60
2023-09-22T04:23:29.367Z,6.82
2023-09-22T04:33:38.091Z,8.23
2023-09-22T04:43:46.257Z,5.68
2023-09-22T04:53:54.870Z,6.93
2023-09-22T05:04:02.258Z,6.60
2023-09-22T05:14:11.189Z,6.43
2023-09-22T05:24:18.197Z,6.57
2023-09-22T05:34:26.808Z,6.97
2023-09-22T05:44:34.873Z,7.90
2023-09-22T05:54:43.552Z,7.70
2023-09-22T06:04:51.133Z,8.38
2023-09-22T06:15:01.394Z,8.23
2023-09-22T06:25:10.198Z,8.13
2023-09-22T06:35:19.222Z,10.15
2023-09-22T06:45:26.526Z,6.85
2023-09-22T06:55:35.121Z,9.82
2023-09-22T07:05:42.112Z,6.75
2023-09-22T07:15:55.880Z,6.10
2023-09-22T07:26:03.558Z,6.80
2023-09-22T07:36:12.538Z,5.25
2023-09-22T07:46:20.596Z,7.05
2023-09-22T07:56:32.565Z,5.18
2023-09-22T08:06:39.756Z,5.18
2023-09-22T08:16:51.501Z,4.78
2023-09-22T08:27:01.666Z,4.35
2023-09-22T08:37:10.567Z,4.90
2023-09-22T08:47:21.137Z,4.53
2023-09-22T08:57:31.981Z,4.20
2023-09-22T09:07:38.815Z,4.57
2023-09-22T09:17:48.245Z,3.72
2023-09-22T09:28:05.533Z,4.65
2023-09-22T09:38:16.016Z,4.28
2023-09-22T09:59:39.988Z,4.72
2023-09-22T10:09:47.778Z,4.93
2023-09-22T10:19:56.296Z,4.20
2023-09-22T10:30:03.128Z,4.78
2023-09-22T10:40:14.159Z,5.40
2023-09-22T10:50:23.378Z,4.15
2023-09-22T11:00:33.765Z,4.03
2023-09-22T11:10:40.837Z,4.07
2023-09-22T11:20:49.344Z,4.75
2023-09-22T11:30:56.412Z,4.22
2023-09-22T11:41:12.948Z,4.25
2023-09-22T11:51:20.440Z,4.22
2023-09-22T12:01:29.411Z,5.03
2023-09-22T12:11:36.411Z,4.20
2023-09-22T12:21:44.894Z,4.47
2023-09-22T12:31:51.912Z,4.68
2023-09-22T12:42:00.485Z,4.80
2023-09-22T12:52:08.064Z,4.78
2023-09-22T13:02:16.789Z,4.40
2023-09-22T13:12:23.671Z,4.63
2023-09-22T13:22:32.407Z,4.55
2023-09-22T13:32:39.357Z,4.57
2023-09-22T13:42:48.870Z,5.05
2023-09-22T13:52:56.878Z,5.07
2023-09-22T14:03:05.502Z,6.05
2023-09-22T14:13:13.368Z,6.10
2023-09-22T14:23:21.868Z,5.88
2023-09-22T14:33:28.806Z,4.28
2023-09-22T14:43:37.645Z,6.35
2023-09-22T14:53:45.180Z,4.97
2023-09-22T15:03:53.763Z,5.75
2023-09-22T15:14:00.736Z,21.60
2023-09-22T15:24:10.257Z,14.88
2023-09-22T15:34:17.116Z,10.80
2023-09-22T15:44:25.632Z,6.22
2023-09-22T15:54:33.963Z,7.53
2023-09-22T16:04:44.374Z,5.80
2023-09-22T16:14:51.775Z,7.43
2023-09-22T16:25:00.617Z,8.35
2023-09-22T16:35:08.701Z,8.48
2023-09-22T16:45:17.460Z,8.32
2023-09-22T16:55:25.024Z,8.30
2023-09-22T17:05:35.882Z,6.68
2023-09-22T17:15:44.156Z,9.65
2023-09-22T17:25:57.069Z,7.13
2023-09-22T17:36:05.334Z,8.23
2023-09-22T17:46:13.904Z,8.30
2023-09-22T17:56:21.749Z,10.02
2023-09-22T18:06:34.100Z,9.70
2023-09-22T18:16:40.998Z,7.57
2023-09-22T18:26:49.668Z,6.60
2023-09-22T18:36:56.922Z,7.65
2023-09-22T18:47:05.918Z,6.70
2023-09-22T18:57:13.357Z,7.97
2023-09-22T19:07:22.048Z,11.57
2023-09-22T19:17:30.359Z,8.57
2023-09-22T19:27:40.177Z,8.77
2023-09-22T19:37:47.154Z,8.45
2023-09-22T19:47:55.842Z,7.75
2023-09-22T19:58:03.632Z,7.47
2023-09-22T20:08:12.303Z,7.93
2023-09-22T20:18:19.261Z,7.70
2023-09-22T20:28:27.796Z,9.00
2023-09-22T20:38:34.783Z,8.77
2023-09-22T20:48:43.328Z,9.38
2023-09-22T20:58:50.876Z,14.85
2023-09-22T21:08:59.731Z,11.77
2023-09-22T21:19:06.913Z,11.43
2023-09-22T21:29:21.158Z,13.10
2023-09-22T21:39:28.270Z,12.50
2023-09-22T21:49:36.928Z,10.00
2023-09-22T21:59:45.798Z,11.40
2023-09-22T22:09:59.365Z,9.05
2023-09-22T22:20:17.623Z,10.30
2023-09-22T22:30:27.064Z,9.30
2023-09-22T22:40:34.815Z,9.13
2023-09-22T22:50:43.526Z,10.10
2023-09-22T23:00:52.629Z,10.27
2023-09-22T23:21:15.078Z,10.00
2023-09-22T23:31:23.873Z,14.10
2023-09-22T23:41:31.207Z,10.02
2023-09-22T23:51:41.072Z,11.07
